Gardi, Georgia
Current Conditions -  °F | °C
As of 9:35 AM on Tuesday 21 Oct 2014 (Local Time) from KJES Reporting Station
Clear Clear  
Wind Chill: 72°   Ceiling: Unl
Heat Index: 72°   Visibility: 10mi
Dew Point: 63°   Wind: 3mph
Humidity: 73%   Direction: 60°ENE
Pressure: 30.01"   Gusts: NA
Location:  31.5041°N, 81.8277°W
Report Text: KJES 211335Z AUTO 06003KT 10SM CLR 22/17 A3001 RMK AO2
Loading
Personal Weather Stations






























Interactive Weather Map
Tropical Storm Tracking
New forecast layout! Learn more

10-Day Weather Forecast

Advertisements
Track Severe Weather on mobile